Main page
METAR-TAF:

METAR-TAF

Airports :

Rijeka, Croatia

Rijeka Airport

latitude: 45-13N, longitude: 014-35E, elevation: 85 m

Current weather observation

The report was made 37 minutes ago, at 19:00 UTC
Wind 7 kt from the Northwest
Temperature 22°C
Humidity 73%
Pressure 1017 hPa
Visibility 10 km or more
no clouds below 1500 m and no cumulonimbus

METAR: LDRI 231900Z 31007KT CAVOK 22/17 Q1017

Time: 21:37 (19:37 UTC)

Forecast

The report was made 2 hours and 12 minutes ago, at 17:25 UTC
Forecast valid from 23 at 18 UTC to 24 at 18 UTC
Wind 2 kt from variable directions
Visibility 10 km or more
no clouds below 1500 m and no cumulonimbus

TAF: LDRI 231725Z 2318/2418 VRB02KT CAVOK TX29/2413Z TN17/2403Z

Weather observations and forecasts of more than 4000 airports (METAR and TAF reports).

The available stations are represented by yellow and red dots on the map.

Hover mouse over dot to see the name of the station.

Then click to see weather observations and forecasts.

To change the map : click on the green buttons with a black cross to zoom in, on the green button with a dash to zoom out, or on the green arrows for adjacent maps.


METAR-TAF: